Taunton 2W

41° 53' 56"N, 71° 08' 19"W, Elevation 50 ft.
Eastern Time

Hourly observations for the last 72 hours

Date Time Temperature (°F) Humi-
dity

(%)
Wind
(mph)
Pressure Rain (in) Sun
(W/m2)
UV ET
(in)
Air Dew 6 Hour 1 Hr 3 Hr 6 Hr Day
Alt
(in)
Sea
Level

(mb)
Max Min
17 19:00 71.1 57.0 61 SSE 3 G 8 29.96 1014.6 0.00 40 0.0 0.177
17 18:00 76.2 57.3 52 SSW 4 G 9 29.96 1014.5 0.00 183 0.6 0.167
17 17:00 79.9 57.3 46 SSW 4 G 14 29.95 1014.4 0.00 411 1.7 0.152
17 16:00 80.8 52.1 37 SW 2 G 7 29.96 1014.5 0.00 596 3.5 0.134
17 15:00 81.2 54.6 40 NNW 5 G 9 29.97 1015.0 0.00 708 5.1 0.114
17 14:00 80.3 53.8 80.3 60.2 40 NNW 4 G 9 29.99 1015.7 0.00 810 6.9 0.091
17 13:00 78.6 54.3 43 W 3 G 11 30.01 1016.4 0.00 875 7.8 0.068
17 12:00 75.5 52.1 44 N 4 G 7 30.03 1016.9 0.00 874 7.2 0.047
17 11:00 74.0 53.7 49 NW 3 G 7 30.05 1017.5 0.00 803 6.1 0.030
17 10:00 72.3 54.7 54 NNW 6 G 10 30.05 1017.8 0.00 601 3.8 0.015
17 09:00 68.7 57.7 68 NW 2 G 4 30.05 1017.6 0.00 512 2.2 0.005
17 08:00 60.2 56.6 60.4 49.2 88 Calm 30.05 1017.7 0.00 243 0.8 0.001
17 07:00 51.1 50.0 96 Calm 30.04 1017.2 0.00 58 0.0 0.000
17 06:00 49.4 48.3 96 Calm 30.02 1016.7 0.00 7 0.0 0.000
17 05:00 50.8 49.7 96 Calm 30.01 1016.4 0.00 0 0.0 0.000
17 04:00 52.2 51.1 96 Calm 30.01 1016.4 0.00 0 0.0 0.000
17 03:00 53.6 52.5 96 Calm 30.00 1016.1 0.00 0 0.0 0.000
17 02:00 55.2 53.8 69.2 55.2 95 Calm 30.00 1015.9 0.00 0 0.0 0.000
17 01:00 56.5 55.1 95 Calm 30.00 1015.9 0.00 0 0.0 0.000
17 00:00 58.3 56.6 94 Calm 30.00 1015.9 0.00 0 0.0 0.193
16 23:00 60.1 58.1 93 Calm 29.99 1015.5 0.00 0 0.0 0.193
16 22:00 62.1 59.7 92 Calm 29.97 1014.8 0.00 0 0.0 0.193
16 21:00 64.6 61.9 91 Calm 29.95 1014.3 0.00 0 0.0 0.193
16 20:00 69.2 63.8 85.9 69.2 83 Calm 29.93 1013.6 0.00 0 0.0 0.192
16 19:00 77.8 62.8 60 NW 2 G 4 29.91 1013.0 0.00 39 0.0 0.187
16 18:00 81.5 60.5 49 NNW 7 G 11 29.89 1012.3 0.00 197 0.5 0.178
16 17:00 83.4 62.3 49 NNW 5 G 11 29.89 1012.1 0.00 392 1.5 0.162
16 16:00 85.0 63.1 48 NNW 7 G 13 29.88 1012.0 0.00 650 3.2 0.143
16 15:00 83.5 63.5 51 NNW 9 G 14 29.89 1012.3 0.00 838 5.4 0.122
16 14:00 82.8 65.0 84.4 70.2 55 NNW 7 G 15 29.90 1012.5 0.00 870 6.9 0.101
16 13:00 83.3 66.0 56 NNW 6 G 13 29.90 1012.4 0.00 1104 5.7 0.077
16 12:00 81.2 64.5 57 NNW 9 G 15 29.89 1012.3 0.00 1035 6.5 0.053
16 11:00 80.1 65.5 61 NNW 6 G 16 29.89 1012.4 0.00 823 6.1 0.032
16 10:00 78.8 67.4 68 NNW 6 G 12 29.90 1012.5 0.00 670 4.2 0.016
16 09:00 74.5 69.4 84 NW 7 G 10 29.90 1012.4 0.00 506 2.3 0.006
16 08:00 70.2 68.1 70.2 60.5 93 NW 3 G 7 29.89 1012.4 0.00 311 0.9 0.001
16 07:00 63.2 62.6 98 SSW 0 G 1 29.89 1012.2 0.00 128 0.0 0.000
16 06:00 62.1 61.5 98 Calm 29.88 1011.9 0.00 9 0.0 0.000
16 05:00 62.4 61.5 97 S 2 G 3 29.87 1011.4 0.00 0 0.0 0.000
16 04:00 64.7 63.8 97 SSE 1 G 3 29.87 1011.4 0.00 0 0.0 0.000
16 03:00 64.1 63.5 98 SW 1 G 3 29.87 1011.7 0.00 0 0.0 0.000
16 02:00 60.5 59.6 69.4 60.5 97 SSW 1 G 2 29.87 1011.4 0.00 0 0.0 0.000
16 01:00 62.0 61.1 97 SSW 0 G 2 29.86 1011.2 0.00 0 0.0 0.000
16 00:00 63.8 62.6 96 SW 3 G 4 29.86 1011.1 0.00 0 0.0 0.093
15 23:00 64.2 63.0 96 S 0 G 3 29.87 1011.4 0.00 0 0.0 0.093
15 22:00 66.2 64.7 95 Calm 29.88 1011.8 0.00 0 0.0 0.093
15 21:00 68.0 65.6 92 S 2 G 4 29.88 1011.9 0.00 0 0.0 0.092
15 20:00 69.4 65.7 78.0 69.4 88 S 5 G 9 29.88 1012.0 0.00 0 0.0 0.091
15 19:00 70.6 66.5 87 S 5 G 11 29.89 1012.1 0.00 37 0.0 0.089
15 18:00 71.6 65.5 81 S 8 G 13 29.89 1012.3 0.00 86 0.0 0.086
15 17:00 72.4 65.2 78 S 4 G 6 29.88 1011.7 0.00 93 0.5 0.083
15 16:00 73.8 66.1 77 S 4 G 11 29.89 1012.1 0.00 79 0.6 0.079
15 15:00 75.6 63.5 66 S 5 G 14 29.88 1012.0 0.00 155 1.3 0.071
15 14:00 78.0 67.4 80.7 67.8 70 S 5 G 12 29.89 1012.2 0.00 264 2.4 0.064
15 13:00 77.4 67.3 71 SSW 6 G 10 29.89 1012.4 0.00 169 1.8 0.054
15 12:00 80.1 67.3 65 WSW 3 G 10 29.90 1012.4 0.00 724 9.1 0.033
15 11:00 77.7 68.0 72 SSE 3 G 7 29.91 1013.0 0.00 693 6.0 0.016
15 10:00 75.1 68.9 81 S 4 G 9 29.93 1013.4 0.00 601 4.2 0.004
15 09:00 70.2 68.7 95 SW 0 G 1 29.93 1013.5 0.00 262 1.7 0.001
15 08:00 67.8 67.2 67.8 61.1 98 SW 0 G 2 29.93 1013.7 0.00 39 0.0 0.000
15 07:00 64.3 63.7 98 Calm 29.93 1013.5 0.00 53 0.0 0.000
15 06:00 63.3 62.7 98 SW 0 G 2 29.93 1013.6 0.00 0 0.0 0.000
15 05:00 63.1 62.5 98 Calm 29.92 1013.3 0.00 0 0.0 0.000
15 04:00 62.1 60.9 96 Calm 29.93 1013.7 0.00 0 0.0 0.000
15 03:00 61.1 60.0 96 Calm 29.93 1013.5 0.00 0 0.0 0.000
15 02:00 61.1 60.0 69.7 61.0 96 Calm 29.94 1013.9 0.00 0 0.0 0.000
15 01:00 62.1 60.7 95 Calm 29.94 1013.9 0.00 0 0.0 0.000
15 00:00 62.5 61.0 95 Calm 29.95 1014.4 0.00 0 0.0 0.139
14 23:00 63.8 62.3 95 Calm 29.96 1014.5 0.00 0 0.0 0.139
14 22:00 64.5 62.7 94 Calm 29.96 1014.6 0.00 0 0.0 0.139
14 21:00 66.7 64.3 92 Calm 29.96 1014.6 0.00 0 0.0 0.139
14 20:00 69.7 65.7 83.2 69.7 87 SW 1 G 2 29.96 1014.5 0.00 0 0.0 0.138

Data generated by WxSolution Version 1.9.0.7, Build 2017.01.18.